createdAt,value
2019-05-25T00:01:48.627Z,99.90
2019-05-25T00:04:17.000Z,99.90
2019-05-25T00:06:45.364Z,99.90
2019-05-25T00:09:13.747Z,99.90
2019-05-25T00:11:42.115Z,99.90
2019-05-25T00:14:10.547Z,99.90
2019-05-25T00:16:39.024Z,99.90
2019-05-25T00:19:07.400Z,99.90
2019-05-25T00:21:35.779Z,99.90
2019-05-25T00:24:12.094Z,99.90
2019-05-25T00:26:34.251Z,99.90
2019-05-25T00:29:02.619Z,99.90
2019-05-25T00:31:30.998Z,99.90
2019-05-25T00:33:59.363Z,99.90
2019-05-25T00:36:27.747Z,99.90
2019-05-25T00:38:56.135Z,99.90
2019-05-25T00:41:24.509Z,99.90
2019-05-25T00:43:52.867Z,99.90
2019-05-25T00:46:21.247Z,99.90
2019-05-25T00:48:49.649Z,99.90
2019-05-25T00:51:18.075Z,99.90
2019-05-25T00:53:46.439Z,99.90
2019-05-25T00:56:14.819Z,99.90
2019-05-25T00:58:43.183Z,99.90
2019-05-25T01:01:11.636Z,99.90
2019-05-25T01:03:40.007Z,99.90
2019-05-25T01:06:08.375Z,99.90
2019-05-25T01:08:36.755Z,99.90
2019-05-25T01:11:05.119Z,99.90
2019-05-25T01:13:33.508Z,99.90
2019-05-25T01:16:01.879Z,99.90
2019-05-25T01:18:30.247Z,99.90
2019-05-25T01:20:58.628Z,99.90
2019-05-25T01:23:26.995Z,99.90
2019-05-25T01:25:55.378Z,99.90
2019-05-25T01:28:23.749Z,99.90
2019-05-25T01:30:52.387Z,99.90
2019-05-25T01:33:20.772Z,99.90
2019-05-25T01:35:49.139Z,99.90
2019-05-25T01:38:17.507Z,99.90
2019-05-25T01:40:45.891Z,99.90
2019-05-25T01:43:14.268Z,99.90
2019-05-25T01:45:42.654Z,99.90
2019-05-25T01:48:11.025Z,99.90
2019-05-25T01:50:39.391Z,99.90
2019-05-25T01:53:07.844Z,99.90
2019-05-25T01:55:36.211Z,99.90
2019-05-25T01:58:04.584Z,99.90
2019-05-25T02:00:32.965Z,99.90
2019-05-25T02:03:01.381Z,99.90
2019-05-25T02:05:29.795Z,99.90
2019-05-25T02:07:58.175Z,99.90
2019-05-25T02:10:26.852Z,99.90
2019-05-25T02:12:55.203Z,99.90
2019-05-25T02:15:23.593Z,99.90
2019-05-25T02:17:51.968Z,99.90
2019-05-25T02:20:20.348Z,99.90
2019-05-25T02:22:48.715Z,99.90
2019-05-25T02:25:18.883Z,99.90
2019-05-25T02:27:47.484Z,99.90
2019-05-25T02:30:16.394Z,99.90
2019-05-25T02:32:44.791Z,99.90
2019-05-25T02:35:21.835Z,99.90
2019-05-25T02:37:50.236Z,99.90
2019-05-25T02:40:19.148Z,99.90
2019-05-25T02:42:47.523Z,99.90
2019-05-25T02:45:15.988Z,99.90
2019-05-25T02:47:44.355Z,99.90
2019-05-25T02:50:32.080Z,99.90
2019-05-25T02:53:00.451Z,99.90
2019-05-25T02:55:34.184Z,99.90
2019-05-25T02:57:59.019Z,99.90
2019-05-25T03:00:33.088Z,99.90
2019-05-25T03:03:02.508Z,99.90
2019-05-25T03:05:30.951Z,99.90
2019-05-25T03:07:59.411Z,99.90
2019-05-25T03:10:29.319Z,99.90
2019-05-25T03:12:59.479Z,99.90
2019-05-25T03:15:27.929Z,99.90
2019-05-25T03:17:56.303Z,99.90
2019-05-25T03:20:24.683Z,99.90
2019-05-25T03:22:53.051Z,99.90
2019-05-25T03:25:21.443Z,99.90
2019-05-25T03:27:49.820Z,99.90
2019-05-25T03:30:21.294Z,99.90
2019-05-25T03:32:49.666Z,99.90
2019-05-25T03:35:18.039Z,99.90
2019-05-25T03:37:46.414Z,99.90
2019-05-25T03:40:14.787Z,99.90
2019-05-25T03:42:43.168Z,99.90
2019-05-25T03:45:11.627Z,99.90
2019-05-25T03:47:39.997Z,99.90
2019-05-25T03:50:08.455Z,99.90
2019-05-25T03:52:36.825Z,99.90
2019-05-25T03:55:06.655Z,99.90
2019-05-25T03:57:35.031Z,99.90
2019-05-25T04:00:07.419Z,99.90
2019-05-25T04:02:36.187Z,99.90
2019-05-25T04:05:06.539Z,99.90
2019-05-25T04:07:34.921Z,99.90
2019-05-25T04:10:04.207Z,99.90
2019-05-25T04:12:32.622Z,99.90
2019-05-25T04:15:01.631Z,99.90
2019-05-25T04:17:30.082Z,99.90
2019-05-25T04:19:58.536Z,99.90
2019-05-25T04:22:26.911Z,99.90
2019-05-25T04:24:55.318Z,99.90
2019-05-25T04:27:23.688Z,99.90
2019-05-25T04:29:52.064Z,99.90
2019-05-25T04:32:20.448Z,99.90
2019-05-25T04:34:48.825Z,99.90
2019-05-25T04:37:17.195Z,99.90
2019-05-25T04:39:45.579Z,99.90
2019-05-25T04:42:13.949Z,99.90
2019-05-25T04:44:42.339Z,99.90
2019-05-25T04:47:25.882Z,99.90
2019-05-25T04:49:40.815Z,99.90
2019-05-25T04:52:09.203Z,99.90
2019-05-25T04:54:37.594Z,99.90
2019-05-25T04:57:06.179Z,99.90
2019-05-25T04:59:34.651Z,99.90
2019-05-25T05:02:03.023Z,99.90
2019-05-25T05:04:31.415Z,99.90
2019-05-25T05:06:59.793Z,99.90
2019-05-25T05:09:28.171Z,99.90
2019-05-25T05:11:56.549Z,99.90
2019-05-25T05:14:25.235Z,99.90
2019-05-25T05:16:53.604Z,99.90
2019-05-25T05:19:21.984Z,99.90
2019-05-25T05:21:50.372Z,99.90
2019-05-25T05:24:18.746Z,99.90
2019-05-25T05:26:56.005Z,99.90
2019-05-25T05:29:17.246Z,99.90
2019-05-25T05:31:45.636Z,99.90
2019-05-25T05:34:14.031Z,99.90
2019-05-25T05:36:42.948Z,99.90
2019-05-25T05:39:11.331Z,99.90
2019-05-25T05:41:39.863Z,99.90
2019-05-25T05:44:08.407Z,99.90
2019-05-25T05:46:38.645Z,99.90
2019-05-25T05:49:09.752Z,99.90
2019-05-25T05:51:38.812Z,99.90
2019-05-25T05:54:07.191Z,99.90
2019-05-25T05:56:35.582Z,99.90
2019-05-25T05:59:03.995Z,99.90
2019-05-25T06:01:32.370Z,99.90
2019-05-25T06:04:00.763Z,99.90
2019-05-25T06:06:29.131Z,99.90
2019-05-25T06:08:57.515Z,99.90
2019-05-25T06:11:25.903Z,99.90
2019-05-25T06:13:54.280Z,99.90
2019-05-25T06:16:22.667Z,99.90
2019-05-25T06:18:51.045Z,99.90
2019-05-25T06:21:19.433Z,99.90
2019-05-25T06:23:47.807Z,99.90
2019-05-25T06:26:16.196Z,99.90
2019-05-25T06:28:44.576Z,99.90
2019-05-25T06:31:12.966Z,99.90
2019-05-25T06:33:41.342Z,99.90
2019-05-25T06:36:09.747Z,99.90
2019-05-25T06:38:38.135Z,99.90
2019-05-25T06:41:08.605Z,99.90
2019-05-25T06:43:36.624Z,99.90
2019-05-25T06:46:05.287Z,99.90
2019-05-25T06:48:33.673Z,99.90
2019-05-25T06:51:02.065Z,97.50
2019-05-25T06:53:30.424Z,95.50
2019-05-25T06:55:58.880Z,93.20
2019-05-25T06:58:27.258Z,91.00
2019-05-25T07:00:55.648Z,86.20
2019-05-25T07:03:24.035Z,77.10
2019-05-25T07:05:52.425Z,68.80
2019-05-25T07:08:20.811Z,61.80
2019-05-25T07:10:49.451Z,59.10
2019-05-25T07:13:17.845Z,55.40
2019-05-25T07:15:46.285Z,52.10
2019-05-25T07:18:14.672Z,49.70
2019-05-25T07:20:43.056Z,50.10
2019-05-25T07:23:11.442Z,48.10
2019-05-25T07:25:39.826Z,46.10
2019-05-25T07:28:08.208Z,46.80
2019-05-25T07:30:36.664Z,45.50
2019-05-25T07:33:05.048Z,48.00
2019-05-25T07:35:33.434Z,46.50
2019-05-25T07:38:01.809Z,47.90
2019-05-25T07:40:30.176Z,46.50
2019-05-25T07:42:58.560Z,45.60
2019-05-25T07:45:26.928Z,43.50
2019-05-25T07:47:55.307Z,42.20
2019-05-25T07:50:23.683Z,43.00
2019-05-25T07:52:52.079Z,42.50
2019-05-25T07:55:20.459Z,43.40
2019-05-25T07:57:48.846Z,42.20
2019-05-25T08:00:17.279Z,41.30
2019-05-25T08:02:45.652Z,42.60
2019-05-25T08:05:14.180Z,42.40
2019-05-25T08:07:42.560Z,42.70
2019-05-25T08:10:11.181Z,42.10
2019-05-25T08:12:39.547Z,44.00
2019-05-25T08:15:08.107Z,43.80
2019-05-25T08:17:36.533Z,45.70
2019-05-25T08:20:09.736Z,46.60
2019-05-25T08:22:38.119Z,51.10
2019-05-25T08:25:08.303Z,55.20
2019-05-25T08:27:36.709Z,54.00
2019-05-25T08:30:10.768Z,52.50
2019-05-25T08:32:39.145Z,54.70
2019-05-25T08:35:08.468Z,53.50
2019-05-25T08:37:36.849Z,55.00
2019-05-25T08:40:06.940Z,53.80
2019-05-25T08:42:35.318Z,57.00
2019-05-25T08:45:07.351Z,59.20
2019-05-25T08:47:35.719Z,58.80
2019-05-25T08:50:08.151Z,56.80
2019-05-25T08:52:36.803Z,57.80
2019-05-25T08:55:10.136Z,56.80
2019-05-25T08:57:38.504Z,55.90
2019-05-25T09:00:08.243Z,56.20
2019-05-25T09:02:36.621Z,55.10
2019-05-25T09:05:08.567Z,56.10
2019-05-25T09:07:36.952Z,55.30
2019-05-25T09:10:07.372Z,53.70
2019-05-25T09:12:35.751Z,52.50
2019-05-25T09:15:06.356Z,53.00
2019-05-25T09:17:34.794Z,50.60
2019-05-25T09:20:04.912Z,47.80
2019-05-25T09:22:33.355Z,45.90
2019-05-25T09:25:01.754Z,44.40
2019-05-25T09:27:30.125Z,41.10
2019-05-25T09:29:58.562Z,40.40
2019-05-25T09:32:26.964Z,39.70
2019-05-25T09:34:55.335Z,39.00
2019-05-25T09:37:23.724Z,38.30
2019-05-25T09:39:52.095Z,37.30
2019-05-25T09:42:20.484Z,35.90
2019-05-25T09:44:48.860Z,36.20
2019-05-25T09:47:17.240Z,36.60
2019-05-25T09:49:45.611Z,37.80
2019-05-25T09:52:13.992Z,37.60
2019-05-25T09:54:42.380Z,38.30
2019-05-25T09:57:10.756Z,37.80
2019-05-25T09:59:39.139Z,38.20
2019-05-25T10:02:07.693Z,38.90
2019-05-25T10:04:36.079Z,41.20
2019-05-25T10:07:04.591Z,41.90
2019-05-25T10:09:32.968Z,41.80
2019-05-25T10:12:01.381Z,43.00
2019-05-25T10:14:29.772Z,43.70
2019-05-25T10:16:58.156Z,43.90
2019-05-25T10:19:26.630Z,41.80
2019-05-25T10:21:55.001Z,40.20
2019-05-25T10:24:23.702Z,39.70
2019-05-25T10:26:52.080Z,39.00
2019-05-25T10:29:36.179Z,38.00
2019-05-25T10:31:51.848Z,38.50
2019-05-25T10:34:20.240Z,38.20
2019-05-25T10:36:48.607Z,38.40
2019-05-25T10:39:16.984Z,36.80
2019-05-25T10:41:45.373Z,39.00
2019-05-25T10:44:13.743Z,38.40
2019-05-25T10:46:42.142Z,37.00
2019-05-25T10:49:11.828Z,35.90
2019-05-25T10:51:40.467Z,35.90
2019-05-25T10:54:08.880Z,36.30
2019-05-25T10:56:37.253Z,36.40
2019-05-25T10:59:05.700Z,34.40
2019-05-25T11:01:34.095Z,34.50
2019-05-25T11:04:02.482Z,36.00
2019-05-25T11:06:34.122Z,36.50
2019-05-25T11:09:00.964Z,35.40
2019-05-25T11:11:29.352Z,36.00
2019-05-25T11:13:58.013Z,36.50
2019-05-25T11:16:26.403Z,35.20
2019-05-25T11:18:54.796Z,36.20
2019-05-25T11:21:23.176Z,33.30
2019-05-25T11:23:51.543Z,33.60
2019-05-25T11:26:19.919Z,34.50
2019-05-25T11:28:48.308Z,36.70
2019-05-25T11:31:16.675Z,35.40
2019-05-25T11:33:45.043Z,34.60
2019-05-25T11:36:13.431Z,35.70
2019-05-25T11:38:41.840Z,35.40
2019-05-25T11:41:10.201Z,34.20
2019-05-25T11:43:38.571Z,34.10
2019-05-25T11:46:06.956Z,36.20
2019-05-25T11:48:35.332Z,37.40
2019-05-25T11:51:03.794Z,37.40
2019-05-25T11:53:32.159Z,37.10
2019-05-25T11:56:00.548Z,35.20
2019-05-25T11:58:28.923Z,35.50
2019-05-25T12:00:57.311Z,37.10
2019-05-25T12:03:25.681Z,36.60
2019-05-25T12:05:54.054Z,36.60
2019-05-25T12:08:22.443Z,37.40
2019-05-25T12:10:50.809Z,39.40
2019-05-25T12:13:19.519Z,42.40
2019-05-25T12:15:47.904Z,43.80
2019-05-25T12:18:16.275Z,44.90
2019-05-25T12:20:44.651Z,43.80
2019-05-25T12:23:13.242Z,42.10
2019-05-25T12:25:41.831Z,40.10
2019-05-25T12:28:10.207Z,39.40
2019-05-25T12:30:41.083Z,37.90
2019-05-25T12:33:08.692Z,36.10
2019-05-25T12:35:37.063Z,37.40
2019-05-25T12:38:05.440Z,37.20
2019-05-25T12:40:33.825Z,35.80
2019-05-25T12:43:02.208Z,36.30
2019-05-25T12:45:30.592Z,35.60
2019-05-25T12:47:58.972Z,35.80
2019-05-25T12:50:27.355Z,38.20
2019-05-25T12:52:55.735Z,41.40
2019-05-25T12:55:24.109Z,39.10
2019-05-25T12:57:52.471Z,37.30
2019-05-25T13:00:20.995Z,35.60
2019-05-25T13:02:49.360Z,37.70
2019-05-25T13:05:32.674Z,35.70
2019-05-25T13:07:47.857Z,36.70
2019-05-25T13:10:16.311Z,37.80
2019-05-25T13:12:44.686Z,37.40
2019-05-25T13:15:13.399Z,38.60
2019-05-25T13:17:41.797Z,41.00
2019-05-25T13:20:10.610Z,42.90
2019-05-25T13:22:38.984Z,44.40
2019-05-25T13:25:08.072Z,41.40
2019-05-25T13:27:36.463Z,40.20
2019-05-25T13:30:08.269Z,40.90
2019-05-25T13:32:36.660Z,43.10
2019-05-25T13:35:08.305Z,42.80
2019-05-25T13:37:36.715Z,41.90
2019-05-25T13:40:08.753Z,41.50
2019-05-25T13:42:37.118Z,40.20
2019-05-25T13:45:10.567Z,38.90
2019-05-25T13:47:38.941Z,41.10
2019-05-25T13:50:12.055Z,39.30
2019-05-25T13:52:40.441Z,39.30
2019-05-25T13:55:08.896Z,39.30
2019-05-25T13:57:37.268Z,39.60
2019-05-25T14:00:07.560Z,38.80
2019-05-25T14:02:35.939Z,38.70
2019-05-25T14:05:05.959Z,36.70
2019-05-25T14:07:34.331Z,37.20
2019-05-25T14:10:02.779Z,34.60
2019-05-25T14:12:31.155Z,33.50
2019-05-25T14:14:59.527Z,34.60
2019-05-25T14:17:27.944Z,34.70
2019-05-25T14:19:56.318Z,36.70
2019-05-25T14:22:24.704Z,36.40
2019-05-25T14:24:53.075Z,34.00
2019-05-25T14:27:21.706Z,34.40
2019-05-25T14:29:50.093Z,35.70
2019-05-25T14:32:18.463Z,35.50
2019-05-25T14:34:46.847Z,35.70
2019-05-25T14:37:15.231Z,36.50
2019-05-25T14:39:43.613Z,33.20
2019-05-25T14:42:12.041Z,33.20
2019-05-25T14:44:40.448Z,32.70
2019-05-25T14:47:08.845Z,32.90
2019-05-25T14:49:37.211Z,33.80
2019-05-25T14:52:05.614Z,34.50
2019-05-25T14:54:33.984Z,35.10
2019-05-25T14:57:02.631Z,34.90
2019-05-25T14:59:30.999Z,35.70
2019-05-25T15:02:02.596Z,36.90
2019-05-25T15:04:29.651Z,37.50
2019-05-25T15:06:58.068Z,38.30
2019-05-25T15:09:26.575Z,37.80
2019-05-25T15:11:54.944Z,37.80
2019-05-25T15:14:23.321Z,39.30
2019-05-25T15:16:51.739Z,38.80
2019-05-25T15:19:20.140Z,40.30
2019-05-25T15:21:48.690Z,40.90
2019-05-25T15:24:17.171Z,40.00
2019-05-25T15:26:45.598Z,40.80
2019-05-25T15:29:13.981Z,40.50
2019-05-25T15:31:42.356Z,40.70
2019-05-25T15:34:10.744Z,40.80
2019-05-25T15:36:39.119Z,40.60
2019-05-25T15:39:08.244Z,41.20
2019-05-25T15:41:36.636Z,40.20
2019-05-25T15:44:05.021Z,39.80
2019-05-25T15:46:34.246Z,38.00
2019-05-25T15:49:02.608Z,40.20
2019-05-25T15:51:31.015Z,40.90
2019-05-25T15:53:59.396Z,41.60
2019-05-25T15:56:27.768Z,42.40
2019-05-25T15:58:56.156Z,43.50
2019-05-25T16:01:24.532Z,45.70
2019-05-25T16:03:52.907Z,45.80
2019-05-25T16:06:23.887Z,46.10
2019-05-25T16:08:51.396Z,46.60
2019-05-25T16:11:19.781Z,48.30
2019-05-25T16:13:48.153Z,48.20
2019-05-25T16:16:16.542Z,49.80
2019-05-25T16:18:44.920Z,50.40
2019-05-25T16:21:13.295Z,50.80
2019-05-25T16:23:41.679Z,52.90
2019-05-25T16:26:10.055Z,53.80
2019-05-25T16:28:38.449Z,53.50
2019-05-25T16:31:06.846Z,55.60
2019-05-25T16:33:35.223Z,54.80
2019-05-25T16:36:03.693Z,55.40
2019-05-25T16:38:32.064Z,57.10
2019-05-25T16:41:00.720Z,55.50
2019-05-25T16:43:29.107Z,55.90
2019-05-25T16:45:57.485Z,57.40
2019-05-25T16:48:25.884Z,59.00
2019-05-25T16:50:54.251Z,56.20
2019-05-25T16:53:22.635Z,59.20
2019-05-25T16:55:54.443Z,59.80
2019-05-25T16:58:21.119Z,57.90
2019-05-25T17:00:49.509Z,59.60
2019-05-25T17:03:27.508Z,60.30
2019-05-25T17:05:47.991Z,56.80
2019-05-25T17:08:16.369Z,55.60
2019-05-25T17:10:44.768Z,55.90
2019-05-25T17:13:13.149Z,56.10
2019-05-25T17:15:41.541Z,58.10
2019-05-25T17:18:10.244Z,56.00
2019-05-25T17:20:38.615Z,54.10
2019-05-25T17:23:06.991Z,55.40
2019-05-25T17:25:35.379Z,54.10
2019-05-25T17:28:03.900Z,53.10
2019-05-25T17:30:37.963Z,50.60
2019-05-25T17:33:06.420Z,49.80
2019-05-25T17:35:34.787Z,50.60
2019-05-25T17:38:03.169Z,48.40
2019-05-25T17:40:31.539Z,48.30
2019-05-25T17:42:59.918Z,46.10
2019-05-25T17:45:28.307Z,44.70
2019-05-25T17:47:56.686Z,44.10
2019-05-25T17:50:25.072Z,44.90
2019-05-25T17:52:53.516Z,45.40
2019-05-25T17:55:21.920Z,42.80
2019-05-25T17:57:50.303Z,44.60
2019-05-25T18:00:39.489Z,43.80
2019-05-25T18:03:08.305Z,44.40
2019-05-25T18:05:36.669Z,44.70
2019-05-25T18:08:06.003Z,45.10
2019-05-25T18:10:51.147Z,45.80
2019-05-25T18:13:05.902Z,44.80
2019-05-25T18:15:34.274Z,43.50
2019-05-25T18:18:02.638Z,45.10
2019-05-25T18:20:31.103Z,46.60
2019-05-25T18:22:59.498Z,47.40
2019-05-25T18:25:27.862Z,49.00
2019-05-25T18:27:56.232Z,49.50
2019-05-25T18:30:25.456Z,51.70
2019-05-25T18:32:54.369Z,52.60
2019-05-25T18:35:22.748Z,53.80
2019-05-25T18:37:51.125Z,55.20
2019-05-25T18:40:19.771Z,51.90
2019-05-25T18:42:48.151Z,52.40
2019-05-25T18:45:17.320Z,55.80
2019-05-25T18:47:45.708Z,57.80
2019-05-25T18:50:14.828Z,62.00
2019-05-25T18:52:43.196Z,68.10
2019-05-25T18:55:11.915Z,73.90
2019-05-25T18:57:40.290Z,73.70
2019-05-25T19:00:09.601Z,78.30
2019-05-25T19:02:38.064Z,82.40
2019-05-25T19:05:07.776Z,83.60
2019-05-25T19:07:36.144Z,84.70
2019-05-25T19:10:08.866Z,85.40
2019-05-25T19:12:37.507Z,86.30
2019-05-25T19:15:09.456Z,88.00
2019-05-25T19:17:37.820Z,90.00
2019-05-25T19:20:06.978Z,90.90
2019-05-25T19:22:35.409Z,91.50
2019-05-25T19:25:05.134Z,92.20
2019-05-25T19:27:33.508Z,92.40
2019-05-25T19:30:01.891Z,93.10
2019-05-25T19:32:30.255Z,93.50
2019-05-25T19:35:00.149Z,94.50
2019-05-25T19:37:28.790Z,93.90
2019-05-25T19:39:57.171Z,93.70
2019-05-25T19:42:25.546Z,93.90
2019-05-25T19:44:53.916Z,94.20
2019-05-25T19:47:22.305Z,94.90
2019-05-25T19:49:50.682Z,95.30
2019-05-25T19:52:19.068Z,95.50
2019-05-25T19:54:47.444Z,95.80
2019-05-25T19:57:15.842Z,95.80
2019-05-25T19:59:44.296Z,96.00
2019-05-25T20:02:12.684Z,96.00
2019-05-25T20:04:41.052Z,96.20
2019-05-25T20:07:09.431Z,96.00
2019-05-25T20:09:37.823Z,96.00
2019-05-25T20:12:06.201Z,96.40
2019-05-25T20:14:34.584Z,97.00
2019-05-25T20:17:03.064Z,97.70
2019-05-25T20:19:31.423Z,97.90
2019-05-25T20:21:59.800Z,98.20
2019-05-25T20:24:28.193Z,98.40
2019-05-25T20:26:56.567Z,98.70
2019-05-25T20:29:24.945Z,99.10
2019-05-25T20:31:53.326Z,99.40
2019-05-25T20:34:21.712Z,99.70
2019-05-25T20:36:50.100Z,99.90
2019-05-25T20:39:18.471Z,99.90
2019-05-25T20:41:46.847Z,99.90
2019-05-25T20:44:15.259Z,99.50
2019-05-25T20:46:43.648Z,99.10
2019-05-25T20:49:12.031Z,99.10
2019-05-25T20:51:40.407Z,99.10
2019-05-25T20:54:08.783Z,99.20
2019-05-25T20:56:37.250Z,99.50
2019-05-25T20:59:05.632Z,99.90
2019-05-25T21:01:34.044Z,99.90
2019-05-25T21:04:02.419Z,99.90
2019-05-25T21:06:30.803Z,99.90
2019-05-25T21:08:59.175Z,99.90
2019-05-25T21:11:27.563Z,99.90
2019-05-25T21:13:56.200Z,99.90
2019-05-25T21:16:24.583Z,99.90
2019-05-25T21:18:52.955Z,99.90
2019-05-25T21:21:21.332Z,99.90
2019-05-25T21:23:49.720Z,99.90
2019-05-25T21:26:18.113Z,99.90
2019-05-25T21:28:46.476Z,99.90
2019-05-25T21:31:14.852Z,99.90
2019-05-25T21:33:43.240Z,99.90
2019-05-25T21:36:11.630Z,99.90
2019-05-25T21:38:40.079Z,99.90
2019-05-25T21:41:08.456Z,99.90
2019-05-25T21:43:36.843Z,99.90
2019-05-25T21:46:05.287Z,99.90
2019-05-25T21:48:33.666Z,99.90
2019-05-25T21:51:02.215Z,99.90
2019-05-25T21:53:30.593Z,99.90
2019-05-25T21:55:58.983Z,99.90
2019-05-25T21:58:27.355Z,99.90
2019-05-25T22:00:55.727Z,99.90
2019-05-25T22:03:24.179Z,99.90
2019-05-25T22:05:52.571Z,99.90
2019-05-25T22:08:20.952Z,99.90
2019-05-25T22:10:49.337Z,99.90
2019-05-25T22:13:28.024Z,99.90
2019-05-25T22:15:47.824Z,99.90
2019-05-25T22:18:16.199Z,99.90
2019-05-25T22:20:44.584Z,99.90
2019-05-25T22:23:12.967Z,99.90
2019-05-25T22:25:41.356Z,99.90
2019-05-25T22:28:09.734Z,99.90
2019-05-25T22:30:38.199Z,99.90
2019-05-25T22:33:06.572Z,99.90
2019-05-25T22:35:35.033Z,99.90
2019-05-25T22:38:03.423Z,99.90
2019-05-25T22:40:31.796Z,99.90
2019-05-25T22:43:00.187Z,99.90
2019-05-25T22:45:28.559Z,99.90
2019-05-25T22:47:56.957Z,99.90
2019-05-25T22:50:25.332Z,99.90
2019-05-25T22:52:53.712Z,99.90
2019-05-25T22:55:22.104Z,99.90
2019-05-25T22:57:50.483Z,99.90
2019-05-25T23:00:20.017Z,99.90
2019-05-25T23:02:48.409Z,99.90
2019-05-25T23:05:16.923Z,99.90
2019-05-25T23:07:45.311Z,99.90
2019-05-25T23:10:14.640Z,99.90
2019-05-25T23:12:43.035Z,99.90
2019-05-25T23:15:11.853Z,99.90
2019-05-25T23:17:40.275Z,99.90
2019-05-25T23:20:09.100Z,99.90
2019-05-25T23:22:37.484Z,99.90
2019-05-25T23:25:06.407Z,99.90
2019-05-25T23:27:34.867Z,99.90
2019-05-25T23:30:03.527Z,99.90
2019-05-25T23:32:31.903Z,99.90
2019-05-25T23:35:00.295Z,99.90
2019-05-25T23:37:28.675Z,99.90
2019-05-25T23:39:57.051Z,99.90
2019-05-25T23:42:25.440Z,99.90
2019-05-25T23:44:53.835Z,99.90
2019-05-25T23:47:22.225Z,99.90
2019-05-25T23:49:50.601Z,99.90
2019-05-25T23:52:18.987Z,99.90
2019-05-25T23:54:47.382Z,99.90
2019-05-25T23:57:15.759Z,99.90
2019-05-25T23:59:44.148Z,99.90
